Time;durP1;ratioP1;P1;durP2;ratioP2;P2;SDS_P1;SDS_P2;PMS_P1;PMS_P2;Temp;Humidity;BMP_temperature;BMP_pressure;BME280_temperature;BME280_humidity;BME280_pressure;Samples;Min_cycle;Max_cycle;Signal;HPM_P1;HPM_P2
2022/01/09 00:00:56;;;;;;;74.88;31.52;;;0.30;95.60;;;;;;4994534;28;20573;-77
2022/01/09 00:03:25;;;;;;;72.50;32.33;;;0.30;95.70;;;;;;4994471;28;20058;-78
2022/01/09 00:05:52;;;;;;;73.65;32.38;;;0.30;95.70;;;;;;4994470;28;20037;-78
2022/01/09 00:08:20;;;;;;;74.70;31.73;;;0.40;95.70;;;;;;4993336;28;20023;-77
2022/01/09 00:10:50;;;;;;;70.82;30.35;;;0.40;95.40;;;;;;4994476;28;20485;-79
2022/01/09 00:13:15;;;;;;;72.45;30.13;;;0.40;95.20;;;;;;4994353;28;20015;-78
2022/01/09 00:15:44;;;;;;;70.75;31.48;;;0.40;95.00;;;;;;4976939;28;20030;-78
2022/01/09 00:18:11;;;;;;;69.22;29.17;;;0.40;94.80;;;;;;4993427;28;20026;-77
2022/01/09 00:20:38;;;;;;;65.78;29.48;;;0.40;94.70;;;;;;4994400;28;20027;-77
2022/01/09 00:23:05;;;;;;;67.15;28.95;;;0.40;94.70;;;;;;4994059;28;20149;-77
2022/01/09 00:25:31;;;;;;;65.93;28.63;;;0.40;94.60;;;;;;4994197;28;20037;-77
2022/01/09 00:27:58;;;;;;;56.35;27.17;;;0.30;94.60;;;;;;4994347;28;20027;-77
2022/01/09 00:30:25;;;;;;;68.43;28.80;;;0.30;94.60;;;;;;4976699;28;20402;-77
2022/01/09 00:32:52;;;;;;;67.97;28.15;;;0.20;94.70;;;;;;4992814;28;20479;-77
2022/01/09 00:35:20;;;;;;;65.32;29.73;;;0.20;94.80;;;;;;4960773;28;20113;-78
2022/01/09 00:37:46;;;;;;;67.45;27.55;;;0.10;94.90;;;;;;4976743;28;20157;-78
2022/01/09 00:40:15;;;;;;;62.08;29.33;;;0.10;95.10;;;;;;4994161;28;20097;-77
2022/01/09 00:42:41;;;;;;;67.55;29.20;;;0.00;95.20;;;;;;4977056;28;20040;-78
2022/01/09 00:45:09;;;;;;;63.53;28.92;;;0.00;95.20;;;;;;4993945;28;20022;-78
2022/01/09 00:47:36;;;;;;;68.95;27.92;;;0.00;95.30;;;;;;4994000;28;20033;-78
2022/01/09 00:50:04;;;;;;;59.40;27.88;;;0.00;95.50;;;;;;4992780;28;20069;-78
2022/01/09 00:52:31;;;;;;;64.25;29.20;;;-0.10;95.50;;;;;;4976764;28;20030;-78
2022/01/09 00:54:59;;;;;;;66.00;29.42;;;-0.10;95.50;;;;;;4992742;28;20026;-78
2022/01/09 00:57:28;;;;;;;67.95;30.13;;;-0.10;95.60;;;;;;4994074;28;20383;-78
2022/01/09 00:59:55;;;;;;;59.53;28.13;;;-0.10;95.60;;;;;;4993796;28;20038;-77
2022/01/09 01:02:24;;;;;;;69.78;29.45;;;-0.20;95.60;;;;;;4994069;28;20077;-78
2022/01/09 01:04:51;;;;;;;59.30;27.17;;;-0.20;95.80;;;;;;4993997;28;20108;-78
2022/01/09 01:07:28;;;;;;;66.65;28.92;;;-0.20;95.80;;;;;;4976757;28;20022;-78
2022/01/09 01:09:59;;;;;;;60.03;26.27;;;-0.30;95.90;;;;;;4977011;28;20022;-78
2022/01/09 01:12:32;;;;;;;72.35;29.30;;;-0.30;95.80;;;;;;4994188;28;20038;-78
2022/01/09 01:14:58;;;;;;;71.18;29.17;;;-0.30;95.80;;;;;;4976895;28;20441;-78
2022/01/09 01:17:26;;;;;;;76.85;31.92;;;-0.40;95.90;;;;;;4993946;28;20037;-77
2022/01/09 01:19:53;;;;;;;62.28;29.05;;;-0.50;96.10;;;;;;4976515;28;20033;-77
2022/01/09 01:22:20;;;;;;;69.80;29.80;;;-0.60;96.50;;;;;;4976667;28;20117;-77
2022/01/09 01:24:47;;;;;;;63.75;28.90;;;-0.60;96.80;;;;;;4988830;28;20055;-77
2022/01/09 01:27:14;;;;;;;66.85;29.20;;;-0.60;97.00;;;;;;4974129;28;20475;-77
2022/01/09 01:29:42;;;;;;;75.75;29.25;;;-0.60;97.10;;;;;;4976176;28;20058;-76
2022/01/09 01:32:10;;;;;;;76.28;31.95;;;-0.70;97.00;;;;;;4978032;28;20034;-77
2022/01/09 01:34:39;;;;;;;82.60;33.33;;;-0.70;97.00;;;;;;4976638;28;20019;-76
2022/01/09 01:37:05;;;;;;;92.78;32.83;;;-0.70;97.40;;;;;;4977645;28;20391;-77
2022/01/09 01:39:32;;;;;;;87.32;35.03;;;-0.70;97.50;;;;;;4977644;28;20026;-77
2022/01/09 01:41:59;;;;;;;79.28;31.45;;;-0.80;97.10;;;;;;4976288;28;20018;-77
2022/01/09 01:44:45;;;;;;;75.72;31.42;;;-0.70;97.30;;;;;;4992391;28;20468;-77
2022/01/09 01:47:13;;;;;;;84.18;32.58;;;-0.80;97.10;;;;;;4976288;28;20031;-77
2022/01/09 01:49:46;;;;;;;75.55;32.40;;;-0.80;97.20;;;;;;4977488;28;20098;-78
2022/01/09 01:52:27;;;;;;;74.10;30.45;;;-0.80;97.30;;;;;;4977763;28;20031;-77
2022/01/09 01:54:54;;;;;;;72.07;31.20;;;-0.80;97.30;;;;;;4977599;28;20106;-77
2022/01/09 01:57:21;;;;;;;63.10;28.90;;;-0.80;97.50;;;;;;4976230;28;20081;-77
2022/01/09 01:59:46;;;;;;;78.18;30.70;;;-0.90;97.70;;;;;;4977338;28;20046;-78
2022/01/09 02:02:14;;;;;;;70.30;30.98;;;-0.90;97.70;;;;;;4977270;28;20491;-78
2022/01/09 02:04:42;;;;;;;74.75;30.90;;;-0.90;97.80;;;;;;4977060;28;20045;-76
2022/01/09 02:07:09;;;;;;;67.90;30.92;;;-0.80;97.90;;;;;;4977096;28;20030;-77
2022/01/09 02:09:37;;;;;;;73.60;34.00;;;-0.80;97.90;;;;;;4977075;28;20031;-77
2022/01/09 02:12:05;;;;;;;77.22;31.30;;;-0.90;97.90;;;;;;4977294;28;20034;-77
2022/01/09 02:14:34;;;;;;;73.57;28.52;;;-0.90;98.00;;;;;;4977048;28;20025;-77
2022/01/09 02:17:02;;;;;;;77.68;29.15;;;-0.90;98.20;;;;;;4975686;28;20032;-77
2022/01/09 02:19:30;;;;;;;61.45;28.17;;;-0.90;98.30;;;;;;4976013;28;20436;-77
2022/01/09 02:21:59;;;;;;;76.22;31.65;;;-0.90;98.50;;;;;;4977122;28;20023;-78
2022/01/09 02:24:27;;;;;;;76.78;30.58;;;-1.00;98.60;;;;;;4975485;28;20050;-77
2022/01/09 02:26:53;;;;;;;72.72;32.05;;;-0.90;98.70;;;;;;4976787;28;20031;-77
2022/01/09 02:29:22;;;;;;;66.70;28.52;;;-0.90;98.70;;;;;;4976994;28;20019;-78
2022/01/09 02:31:49;;;;;;;77.95;31.25;;;-1.00;98.90;;;;;;4976667;28;20384;-78
2022/01/09 02:34:15;;;;;;;63.53;28.55;;;-1.00;99.10;;;;;;4977163;28;20097;-78
2022/01/09 02:36:43;;;;;;;65.60;28.73;;;-1.00;99.20;;;;;;4976672;28;20034;-77
2022/01/09 02:39:11;;;;;;;74.35;30.65;;;-1.00;99.30;;;;;;4976889;28;20145;-78
2022/01/09 02:41:39;;;;;;;74.05;31.85;;;-1.00;99.40;;;;;;4974297;28;20034;-77
2022/01/09 02:44:10;;;;;;;72.97;32.17;;;-1.00;99.50;;;;;;4976351;28;20533;-77
2022/01/09 02:47:02;;;;;;;72.53;31.88;;;-1.00;99.60;;;;;;4975526;28;20113;-77
2022/01/09 02:49:28;;;;;;;;;;;-1.00;99.70;;;;;;4977004;28;20488;-77
2022/01/09 02:51:58;;;;;;;67.00;27.25;;;-1.00;99.80;;;;;;4976389;28;20359;-77
2022/01/09 02:57:10;;;;;;;76.78;28.90;;;-1.00;99.90;;;;;;4976273;28;20089;-77
2022/01/09 02:59:38;;;;;;;67.57;28.13;;;-1.00;99.90;;;;;;4976389;28;20022;-77
2022/01/09 03:02:06;;;;;;;66.28;27.40;;;-1.00;99.90;;;;;;4976313;28;20034;-77
2022/01/09 03:04:35;;;;;;;66.88;29.00;;;-1.00;99.90;;;;;;4976138;28;20487;-77
2022/01/09 03:07:01;;;;;;;70.18;29.17;;;-1.00;99.90;;;;;;4975933;28;20045;-77
2022/01/09 03:09:27;;;;;;;68.63;30.23;;;-1.00;99.90;;;;;;4974920;28;20014;-77
2022/01/09 03:11:53;;;;;;;61.72;29.17;;;-1.00;99.90;;;;;;4976075;28;20035;-78
2022/01/09 03:14:20;;;;;;;67.75;29.67;;;-1.00;99.90;;;;;;4976205;28;20019;-76
2022/01/09 03:16:47;;;;;;;60.83;27.05;;;-1.00;99.90;;;;;;4974694;28;20448;-77
2022/01/09 03:19:14;;;;;;;62.80;27.98;;;-1.00;99.90;;;;;;4975775;28;20058;-77
2022/01/09 03:21:42;;;;;;;61.08;27.30;;;-1.00;99.90;;;;;;4974498;28;20026;-77
2022/01/09 03:24:09;;;;;;;61.05;26.98;;;-1.00;99.90;;;;;;4974750;28;20122;-78
2022/01/09 03:26:36;;;;;;;62.78;25.67;;;-1.10;99.90;;;;;;4975863;28;20059;-78
2022/01/09 03:29:03;;;;;;;55.67;26.58;;;-1.00;99.90;;;;;;4975787;28;20027;-78
2022/01/09 03:31:31;;;;;;;56.25;28.23;;;-1.00;99.90;;;;;;4975727;28;20031;-78
2022/01/09 03:33:59;;;;;;;65.63;26.08;;;-1.10;99.90;;;;;;4975474;28;20036;-77
2022/01/09 03:36:27;;;;;;;54.60;26.98;;;-1.00;99.90;;;;;;4975602;28;20471;-78
2022/01/09 03:38:54;;;;;;;60.17;26.17;;;-1.10;99.90;;;;;;4975607;28;20026;-78
2022/01/09 03:41:20;;;;;;;65.45;27.55;;;-1.10;99.90;;;;;;4975732;28;20077;-77
2022/01/09 03:43:48;;;;;;;58.17;24.58;;;-1.10;99.90;;;;;;4958307;28;20463;-77
2022/01/09 03:46:15;;;;;;;62.67;26.60;;;-1.10;99.90;;;;;;4975675;28;20460;-77
2022/01/09 03:48:44;;;;;;;61.83;26.17;;;-1.10;99.90;;;;;;4974100;28;20077;-78
2022/01/09 03:51:11;;;;;;;61.55;26.17;;;-1.10;99.80;;;;;;4974368;28;20022;-77
2022/01/09 03:53:39;;;;;;;60.10;24.75;;;-1.10;99.80;;;;;;4975530;28;20022;-77
2022/01/09 03:56:08;;;;;;;52.55;23.23;;;-1.10;99.80;;;;;;4974637;28;20034;-78
2022/01/09 03:58:36;;;;;;;56.85;24.55;;;-1.10;99.80;;;;;;4975262;28;20471;-77
2022/01/09 04:01:06;;;;;;;57.38;22.83;;;-1.10;99.90;;;;;;4975050;28;20030;-77
2022/01/09 04:03:33;;;;;;;56.03;24.15;;;-1.10;99.80;;;;;;4973958;28;20027;-77
2022/01/09 04:06:01;;;;;;;58.45;25.13;;;-1.10;99.80;;;;;;4975179;28;20069;-77
2022/01/09 04:08:28;;;;;;;53.45;24.55;;;-1.20;99.80;;;;;;4973705;28;20030;-77
2022/01/09 04:10:56;;;;;;;51.20;21.05;;;-1.20;99.80;;;;;;4973866;28;20035;-77
2022/01/09 04:13:22;;;;;;;51.30;22.92;;;-1.20;99.70;;;;;;4975086;28;20368;-77
2022/01/09 04:15:50;;;;;;;53.92;22.20;;;-1.20;99.70;;;;;;4974867;28;20034;-77
2022/01/09 04:18:19;;;;;;;48.22;21.45;;;-1.20;99.70;;;;;;4975099;28;20027;-77
2022/01/09 04:20:46;;;;;;;48.10;22.15;;;-1.20;99.60;;;;;;4974126;28;20167;-77
2022/01/09 04:23:14;;;;;;;50.78;22.48;;;-1.20;99.50;;;;;;4976239;28;20487;-77
2022/01/09 04:25:40;;;;;;;49.75;21.55;;;-1.20;99.50;;;;;;4994241;28;20481;-77
2022/01/09 04:28:07;;;;;;;44.25;22.05;;;-1.20;99.50;;;;;;4976883;28;20114;-77
2022/01/09 04:30:35;;;;;;;49.63;21.38;;;-1.20;99.40;;;;;;4994393;28;20030;-77
2022/01/09 04:33:03;;;;;;;46.08;20.23;;;-1.20;99.40;;;;;;4994415;28;20018;-77
2022/01/09 04:35:29;;;;;;;48.72;19.80;;;-1.20;99.40;;;;;;4976620;28;20029;-77
2022/01/09 04:37:57;;;;;;;43.28;20.95;;;-1.30;99.40;;;;;;4976791;28;20070;-76
2022/01/09 04:40:25;;;;;;;49.00;21.67;;;-1.20;99.40;;;;;;4976789;28;20042;-78
2022/01/09 04:42:58;;;;;;;50.17;22.60;;;-1.20;99.40;;;;;;4994022;28;20474;-77
2022/01/09 04:45:28;;;;;;;48.00;21.92;;;-1.20;99.40;;;;;;4993909;28;20038;-78
2022/01/09 04:48:00;;;;;;;42.03;20.40;;;-1.20;99.40;;;;;;4994054;28;20069;-78
2022/01/09 04:50:29;;;;;;;48.72;22.92;;;-1.20;99.40;;;;;;4994038;28;20025;-77
2022/01/09 04:53:00;;;;;;;49.90;22.13;;;-1.20;99.30;;;;;;4976390;28;20022;-78
2022/01/09 04:55:28;;;;;;;46.58;21.73;;;-1.20;99.30;;;;;;4977041;28;20026;-78
2022/01/09 04:57:55;;;;;;;44.55;21.17;;;-1.20;99.60;;;;;;4976512;28;20068;-77
2022/01/09 05:00:22;;;;;;;51.88;22.65;;;-1.20;99.20;;;;;;4976412;28;20398;-78
2022/01/09 05:02:50;;;;;;;45.42;18.98;;;-1.20;99.20;;;;;;4976492;28;20105;-77
2022/01/09 05:05:17;;;;;;;49.50;22.45;;;-1.20;99.20;;;;;;4996738;28;20054;-76
2022/01/09 05:07:45;;;;;;;42.97;19.58;;;-1.20;99.20;;;;;;4997521;28;20026;-78
2022/01/09 05:10:12;;;;;;;43.50;21.80;;;-1.20;99.40;;;;;;4980940;28;20058;-78
2022/01/09 05:12:38;;;;;;;43.22;20.45;;;-1.20;98.90;;;;;;4980325;28;20053;-77
2022/01/09 05:15:16;;;;;;;50.92;21.27;;;-1.20;98.80;;;;;;4980357;28;20113;-76
2022/01/09 05:17:42;;;;;;;45.97;19.52;;;-1.10;98.70;;;;;;4997656;28;20015;-76
2022/01/09 05:20:11;;;;;;;35.25;19.48;;;-1.10;98.50;;;;;;4997521;28;20113;-78
2022/01/09 05:22:39;;;;;;;45.40;19.92;;;-1.20;98.40;;;;;;4996164;28;20026;-78
2022/01/09 05:25:06;;;;;;;48.40;18.58;;;-1.10;98.70;;;;;;4997231;28;20058;-78
2022/01/09 05:27:34;;;;;;;45.03;20.58;;;-1.10;98.20;;;;;;4980159;28;20480;-78
2022/01/09 05:30:02;;;;;;;39.20;16.48;;;-1.10;98.10;;;;;;4979966;28;20022;-77
2022/01/09 05:32:32;;;;;;;36.15;17.23;;;-1.10;98.10;;;;;;4997210;28;20030;-78
2022/01/09 05:35:00;;;;;;;35.10;16.52;;;-1.10;98.00;;;;;;4997435;28;20022;-78
2022/01/09 05:37:27;;;;;;;35.58;16.08;;;-1.10;97.80;;;;;;4997608;28;20471;-78
2022/01/09 05:39:54;;;;;;;33.85;15.18;;;-1.10;97.60;;;;;;4997033;28;20341;-78
2022/01/09 05:42:21;;;;;;;32.53;16.35;;;-1.10;97.50;;;;;;4963767;28;20068;-78
2022/01/09 05:44:48;;;;;;;37.50;15.45;;;-1.10;97.50;;;;;;4997050;28;20030;-77
2022/01/09 05:47:15;;;;;;;32.05;16.92;;;-1.10;97.40;;;;;;4979331;28;20033;-78
2022/01/09 05:49:43;;;;;;;32.88;16.92;;;-1.00;97.20;;;;;;4997205;28;20356;-77
2022/01/09 05:52:11;;;;;;;32.97;17.08;;;-1.00;97.00;;;;;;4979340;28;20054;-77
2022/01/09 05:54:38;;;;;;;41.10;18.40;;;-1.00;96.90;;;;;;4996929;28;20029;-77
2022/01/09 05:57:06;;;;;;;31.88;17.58;;;-1.00;96.80;;;;;;4996825;28;20105;-77
2022/01/09 05:59:33;;;;;;;37.17;16.90;;;-1.00;96.70;;;;;;4997002;28;20026;-77
2022/01/09 06:02:02;;;;;;;37.53;16.92;;;-1.00;96.70;;;;;;4996687;28;20022;-77
2022/01/09 06:04:30;;;;;;;42.75;18.85;;;-1.00;96.60;;;;;;4996641;28;20019;-77
2022/01/09 06:06:57;;;;;;;36.10;17.48;;;-1.00;96.50;;;;;;4979066;28;20023;-78
2022/01/09 06:09:25;;;;;;;40.78;18.23;;;-1.10;96.40;;;;;;4996583;28;20034;-77
2022/01/09 06:11:50;;;;;;;34.88;17.15;;;-1.10;96.40;;;;;;4979164;28;20077;-77
2022/01/09 06:14:17;;;;;;;35.10;16.77;;;-1.10;96.40;;;;;;4995089;28;20027;-77
2022/01/09 06:16:44;;;;;;;39.08;17.92;;;-1.20;96.40;;;;;;4996223;28;20019;-77
2022/01/09 06:19:13;;;;;;;35.95;17.48;;;-1.20;96.40;;;;;;4978839;28;20027;-77
2022/01/09 06:21:40;;;;;;;47.65;18.77;;;-1.20;96.60;;;;;;4996357;28;20471;-77
2022/01/09 06:24:05;;;;;;;37.03;17.95;;;-1.30;96.50;;;;;;4975198;28;20047;-77
2022/01/09 06:26:32;;;;;;;47.83;20.00;;;-1.40;96.70;;;;;;4976776;28;20023;-77
2022/01/09 06:28:58;;;;;;;43.38;18.27;;;-1.40;96.80;;;;;;4976536;28;20023;-76
2022/01/09 06:31:25;;;;;;;40.17;18.88;;;-1.50;96.90;;;;;;4976664;28;20034;-77
2022/01/09 06:33:52;;;;;;;43.03;18.98;;;-1.50;97.20;;;;;;4976818;28;20077;-76
2022/01/09 06:36:20;;;;;;;44.35;19.55;;;-1.60;97.20;;;;;;4976584;28;20015;-77
2022/01/09 06:38:46;;;;;;;46.08;20.33;;;-1.60;97.40;;;;;;4976605;28;20154;-76
2022/01/09 06:41:13;;;;;;;42.45;19.23;;;-1.60;97.60;;;;;;4976399;28;20046;-77
2022/01/09 06:43:40;;;;;;;55.22;22.20;;;-1.70;97.80;;;;;;4959282;28;20514;-77
2022/01/09 06:46:08;;;;;;;44.47;19.85;;;-1.70;97.90;;;;;;4976435;28;20369;-77
2022/01/09 06:48:36;;;;;;;42.42;21.55;;;-1.70;98.00;;;;;;4976533;28;20023;-77
2022/01/09 06:51:03;;;;;;;54.85;23.17;;;-1.70;98.00;;;;;;4976438;28;20023;-76
2022/01/09 06:53:28;;;;;;;55.58;22.35;;;-1.80;98.00;;;;;;4976341;28;20034;-76
2022/01/09 06:55:56;;;;;;;52.28;22.23;;;-1.80;98.20;;;;;;4991144;28;20015;-76
2022/01/09 06:58:24;;;;;;;44.50;20.23;;;-1.80;98.20;;;;;;4991015;28;20033;-76
2022/01/09 07:00:52;;;;;;;51.88;22.05;;;-1.80;98.30;;;;;;4976215;28;20109;-77
2022/01/09 07:03:19;;;;;;;50.88;22.88;;;-1.80;98.40;;;;;;4991000;28;20120;-78
2022/01/09 07:05:47;;;;;;;47.78;21.20;;;-1.80;98.50;;;;;;4976256;28;20038;-76
2022/01/09 07:08:15;;;;;;;49.97;21.88;;;-1.80;98.60;;;;;;4976047;28;20082;-77
2022/01/09 07:10:42;;;;;;;50.65;21.55;;;-1.90;99.00;;;;;;4975895;28;20026;-76
2022/01/09 07:13:10;;;;;;;48.50;21.17;;;-1.90;98.70;;;;;;4975881;28;20403;-76
2022/01/09 07:15:38;;;;;;;49.78;22.77;;;-1.90;98.80;;;;;;4976190;28;20019;-77
2022/01/09 07:18:03;;;;;;;46.25;21.35;;;-1.90;98.90;;;;;;4976021;28;20476;-77
2022/01/09 07:20:30;;;;;;;56.38;26.23;;;-1.90;98.90;;;;;;4975726;28;20106;-76
2022/01/09 07:22:57;;;;;;;52.30;24.55;;;-1.90;98.90;;;;;;4958282;28;20027;-77
2022/01/09 07:25:24;;;;;;;63.40;26.77;;;-1.80;99.00;;;;;;4994367;28;20042;-77
2022/01/09 07:27:52;;;;;;;62.28;26.02;;;-1.80;98.90;;;;;;4995849;28;20030;-81
2022/01/09 07:30:20;;;;;;;57.17;26.45;;;-1.80;99.00;;;;;;4979534;28;20033;-80
2022/01/09 07:32:46;;;;;;;54.45;25.15;;;-1.80;99.10;;;;;;4997327;28;20430;-77
2022/01/09 07:35:13;;;;;;;48.97;23.40;;;-1.80;99.10;;;;;;4995282;28;20027;-76
2022/01/09 07:37:40;;;;;;;57.35;24.60;;;-1.80;99.10;;;;;;4995129;28;20080;-75
2022/01/09 07:40:06;;;;;;;54.47;23.30;;;-1.80;99.10;;;;;;4994900;28;20023;-74
2022/01/09 07:42:34;;;;;;;54.95;24.95;;;-1.70;99.10;;;;;;4961211;28;20069;-74
2022/01/09 07:45:06;;;;;;;50.85;23.52;;;-1.70;99.10;;;;;;4995112;28;20045;-76
2022/01/09 07:47:35;;;;;;;44.63;22.40;;;-1.60;99.20;;;;;;4994617;28;20467;-73
2022/01/09 07:50:03;;;;;;;54.30;23.02;;;-1.60;99.20;;;;;;4961442;28;20053;-78
2022/01/09 07:52:34;;;;;;;48.22;23.02;;;-1.50;99.20;;;;;;4977349;28;20030;-77
2022/01/09 07:55:00;;;;;;;55.20;24.42;;;-1.40;99.10;;;;;;5003952;28;20408;-78
2022/01/09 07:57:27;;;;;;;48.80;22.33;;;-1.40;98.80;;;;;;4996007;28;20475;-81
2022/01/09 07:59:56;;;;;;;52.70;23.20;;;-1.30;98.50;;;;;;4977942;28;20038;-78
2022/01/09 08:02:24;;;;;;;52.78;23.88;;;-1.20;98.20;;;;;;4977521;28;20038;-78
2022/01/09 08:04:50;;;;;;;48.08;23.17;;;-1.20;98.00;;;;;;4993213;28;20034;-80
2022/01/09 08:07:19;;;;;;;48.97;24.63;;;-1.10;97.60;;;;;;4995466;28;20026;-84
2022/01/09 08:09:46;;;;;;;55.75;25.75;;;-1.10;97.50;;;;;;4995526;28;20467;-80
2022/01/09 08:12:15;;;;;;;53.03;24.88;;;-1.00;97.50;;;;;;4996046;28;20069;-81
2022/01/09 08:14:49;;;;;;;50.45;25.10;;;-0.90;97.50;;;;;;4977261;28;20026;-82
2022/01/09 08:17:17;;;;;;;48.90;23.38;;;-0.90;97.20;;;;;;4977052;28;20030;-84
2022/01/09 08:19:43;;;;;;;55.13;24.85;;;-0.90;96.90;;;;;;4994513;28;20022;-84
2022/01/09 08:22:11;;;;;;;56.40;25.38;;;-0.80;96.80;;;;;;4990180;28;20425;-84
2022/01/09 08:24:39;;;;;;;50.75;25.23;;;-0.80;96.90;;;;;;5034013;28;20432;-83
2022/01/09 08:27:07;;;;;;;58.83;25.63;;;-0.70;96.90;;;;;;5020106;28;20121;-84
2022/01/09 08:29:37;;;;;;;50.20;24.10;;;-0.70;96.90;;;;;;5002898;28;20100;-84
2022/01/09 08:32:13;;;;;;;50.97;23.70;;;-0.60;97.10;;;;;;4995772;28;20478;-83
2022/01/09 08:34:40;;;;;;;46.08;23.85;;;-0.60;97.10;;;;;;5005657;28;20114;-83
2022/01/09 08:37:12;;;;;;;52.13;22.60;;;-0.50;97.20;;;;;;5024292;28;20159;-84
2022/01/09 08:39:44;;;;;;;49.80;23.48;;;-0.40;97.40;;;;;;5032706;28;20525;-84
2022/01/09 08:42:12;;;;;;;47.25;21.98;;;-0.30;97.50;;;;;;5036645;28;20030;-81
2022/01/09 08:44:41;;;;;;;48.92;21.25;;;-0.10;97.80;;;;;;5038257;28;20351;-82
2022/01/09 08:47:08;;;;;;;43.65;20.23;;;0.00;98.00;;;;;;5037251;28;20014;-85
2022/01/09 08:49:35;;;;;;;44.92;20.15;;;0.20;97.40;;;;;;5021172;28;20488;-81
2022/01/09 08:52:03;;;;;;;41.53;18.92;;;0.40;97.30;;;;;;5005111;28;20033;-82
2022/01/09 08:54:30;;;;;;;47.83;20.95;;;0.60;96.80;;;;;;4996958;28;20026;-81
2022/01/09 08:56:57;;;;;;;40.78;19.40;;;0.90;96.30;;;;;;4996965;28;20081;-82
2022/01/09 08:59:26;;;;;;;39.83;18.88;;;1.10;95.80;;;;;;4980645;28;20460;-82
2022/01/09 09:02:00;;;;;;;39.78;19.48;;;1.20;94.60;;;;;;4997638;28;20023;-81
2022/01/09 09:04:27;;;;;;;37.35;17.92;;;1.40;94.40;;;;;;4999207;28;20085;-81
2022/01/09 09:06:54;;;;;;;38.40;18.88;;;1.60;94.30;;;;;;4997967;28;20026;-81
2022/01/09 09:09:20;;;;;;;42.53;19.70;;;1.90;93.00;;;;;;5013021;28;20141;-81
2022/01/09 09:11:48;;;;;;;39.60;18.90;;;2.00;92.40;;;;;;4996963;28;20050;-81
2022/01/09 09:14:15;;;;;;;37.38;18.70;;;2.20;91.90;;;;;;4996711;28;20084;-82
2022/01/09 09:16:42;;;;;;;36.10;18.08;;;2.40;91.80;;;;;;4981115;28;20018;-83
2022/01/09 09:19:09;;;;;;;35.88;17.90;;;2.60;91.20;;;;;;4997825;28;20034;-81
2022/01/09 09:21:36;;;;;;;37.95;17.65;;;2.80;90.30;;;;;;4996431;28;20038;-82
2022/01/09 09:24:04;;;;;;;38.67;19.63;;;2.90;90.00;;;;;;5005309;28;20494;-83
2022/01/09 09:26:32;;;;;;;34.70;17.33;;;3.10;89.30;;;;;;5015978;28;20057;-82
2022/01/09 09:28:59;;;;;;;34.45;17.67;;;3.30;88.00;;;;;;4999501;28;20505;-85
2022/01/09 09:31:26;;;;;;;36.28;17.27;;;3.50;86.80;;;;;;5001268;28;20097;-84
2022/01/09 09:33:53;;;;;;;31.60;16.90;;;3.60;85.50;;;;;;5018418;28;20386;-83
2022/01/09 09:36:21;;;;;;;40.20;18.50;;;3.70;84.10;;;;;;5017768;28;20072;-82
2022/01/09 09:38:50;;;;;;;32.67;15.45;;;3.80;83.30;;;;;;5018078;28;20052;-81
2022/01/09 09:41:17;;;;;;;31.45;16.35;;;3.90;82.30;;;;;;5024339;28;20053;-81
2022/01/09 09:43:45;;;;;;;30.15;15.02;;;3.90;82.00;;;;;;5020603;28;20038;-83
2022/01/09 09:46:21;;;;;;;33.90;16.13;;;4.00;82.00;;;;;;5002385;28;20021;-82
2022/01/09 09:48:48;;;;;;;29.85;14.73;;;4.00;81.80;;;;;;5018530;28;20108;-81
2022/01/09 09:51:16;;;;;;;29.63;15.45;;;4.00;81.00;;;;;;5016935;28;20018;-81
2022/01/09 09:53:44;;;;;;;35.17;16.42;;;4.00;82.00;;;;;;4984844;28;20029;-80
2022/01/09 09:56:11;;;;;;;34.10;17.13;;;3.90;80.30;;;;;;4999402;28;20026;-82
2022/01/09 09:58:40;;;;;;;32.80;15.10;;;3.90;80.80;;;;;;4999573;28;20030;-82
2022/01/09 10:01:06;;;;;;;29.77;16.92;;;3.90;81.40;;;;;;5000228;28;20478;-81
2022/01/09 10:03:33;;;;;;;30.77;15.38;;;3.90;80.90;;;;;;5021142;28;20025;-81
2022/01/09 10:05:59;;;;;;;27.08;14.55;;;3.80;80.90;;;;;;4998799;28;20034;-78
2022/01/09 10:08:39;;;;;;;25.33;15.38;;;3.80;80.90;;;;;;4998516;28;20055;-78
2022/01/09 10:11:16;;;;;;;28.80;14.85;;;3.70;81.40;;;;;;4998455;28;20466;-78
2022/01/09 10:13:42;;;;;;;28.80;14.95;;;3.70;81.90;;;;;;4999113;28;20018;-77
2022/01/09 10:16:09;;;;;;;30.00;14.63;;;3.70;81.80;;;;;;4998287;28;20064;-78
2022/01/09 10:18:49;;;;;;;32.50;15.07;;;3.70;81.80;;;;;;4998256;28;20407;-78
2022/01/09 10:21:14;;;;;;;30.77;16.88;;;3.70;81.80;;;;;;4998155;28;20052;-82
2022/01/09 10:24:16;;;;;;;39.10;16.50;;;3.60;82.00;;;;;;5002150;28;20041;-81
2022/01/09 10:26:49;;;;;;;30.43;14.40;;;3.60;82.80;;;;;;4942571;29;20027;-82
2022/01/09 10:29:17;;;;;;;31.55;15.70;;;3.60;83.30;;;;;;5006613;28;20780;-82
2022/01/09 10:31:44;;;;;;;29.50;15.13;;;3.60;82.80;;;;;;4998576;28;20018;-77
2022/01/09 10:34:12;;;;;;;32.00;14.38;;;3.70;82.70;;;;;;5016099;28;20021;-77
2022/01/09 10:36:49;;;;;;;27.40;14.45;;;3.70;82.30;;;;;;4998825;28;20026;-77
2022/01/09 10:39:36;;;;;;;29.70;14.18;;;3.70;82.80;;;;;;5016380;28;20026;-77
2022/01/09 10:42:03;;;;;;;31.98;13.35;;;3.80;83.30;;;;;;5007900;28;20038;-78
2022/01/09 10:44:33;;;;;;;33.50;14.85;;;3.80;83.10;;;;;;5010471;28;20022;-77
2022/01/09 10:47:06;;;;;;;39.65;14.80;;;3.80;82.60;;;;;;5024550;28;20018;-76
2022/01/09 10:49:39;;;;;;;37.13;15.70;;;3.80;82.60;;;;;;4990100;28;20033;-78
2022/01/09 10:52:17;;;;;;;30.58;15.10;;;3.80;82.40;;;;;;5004843;28;20450;-78
2022/01/09 10:54:46;;;;;;;30.58;15.73;;;3.80;82.50;;;;;;5009475;28;20037;-75
2022/01/09 10:57:20;;;;;;;29.30;14.75;;;3.80;83.00;;;;;;5006966;28;20022;-76
2022/01/09 10:59:47;;;;;;;33.10;14.88;;;3.80;82.80;;;;;;5003145;28;20076;-76
2022/01/09 11:02:13;;;;;;;33.13;15.18;;;3.70;83.00;;;;;;5022673;28;20021;-75
2022/01/09 11:04:42;;;;;;;31.80;14.52;;;3.60;83.20;;;;;;5025270;28;20049;-76
2022/01/09 11:07:09;;;;;;;24.73;12.90;;;3.60;83.40;;;;;;5006964;28;20036;-77
2022/01/09 11:09:37;;;;;;;28.48;12.98;;;3.50;83.40;;;;;;5009712;28;20028;-77
2022/01/09 11:12:06;;;;;;;31.60;14.07;;;3.50;83.70;;;;;;5025302;28;20026;-77
2022/01/09 11:14:36;;;;;;;28.70;14.88;;;3.50;84.00;;;;;;5032363;28;20026;-76
2022/01/09 11:17:05;;;;;;;31.95;14.23;;;3.50;84.00;;;;;;5002451;28;20494;-81
2022/01/09 11:19:32;;;;;;;26.73;13.30;;;3.50;83.80;;;;;;4997070;28;20037;-82
2022/01/09 11:21:59;;;;;;;29.85;13.77;;;3.50;84.20;;;;;;5014753;28;20475;-78
2022/01/09 11:24:31;;;;;;;27.45;13.55;;;3.50;84.00;;;;;;5015002;28;20057;-74
2022/01/09 11:27:00;;;;;;;24.73;13.23;;;3.50;83.60;;;;;;5014503;28;20033;-76
2022/01/09 11:29:45;;;;;;;26.33;12.35;;;3.50;83.70;;;;;;5015119;28;20045;-81
2022/01/09 11:32:50;;;;;;;27.77;14.82;;;3.50;83.10;;;;;;4986823;28;20034;-78
2022/01/09 11:35:43;;;;;;;24.35;12.00;;;3.40;83.20;;;;;;4984514;28;20494;-81
2022/01/09 11:38:17;;;;;;;24.35;11.50;;;3.40;84.00;;;;;;5014676;28;20513;-79
2022/01/09 11:40:43;;;;;;;20.40;10.90;;;3.40;83.70;;;;;;5014037;28;20095;-79
2022/01/09 11:43:14;;;;;;;27.80;13.18;;;3.50;82.60;;;;;;5013978;28;20478;-80
2022/01/09 11:46:00;;;;;;;22.90;10.55;;;3.50;82.60;;;;;;5014271;28;20026;-79
2022/01/09 11:48:51;;;;;;;28.08;11.93;;;3.50;82.50;;;;;;4996294;28;20034;-79
2022/01/09 11:51:25;;;;;;;26.15;13.30;;;3.50;82.30;;;;;;4996730;28;20077;-79
2022/01/09 11:53:58;;;;;;;24.15;12.07;;;3.50;82.60;;;;;;5014941;28;20017;-78
2022/01/09 11:56:41;;;;;;;25.27;12.23;;;3.60;82.40;;;;;;4996461;28;20029;-78
2022/01/09 11:59:24;;;;;;;25.73;12.70;;;3.70;82.10;;;;;;5014036;28;20036;-76
2022/01/09 12:01:58;;;;;;;24.33;11.38;;;3.70;82.10;;;;;;4996294;28;20100;-77
2022/01/09 12:04:35;;;;;;;25.48;11.50;;;3.80;81.50;;;;;;4996041;28;20026;-78
2022/01/09 12:07:15;;;;;;;21.75;12.32;;;3.80;80.80;;;;;;4996264;28;20036;-78
2022/01/09 12:09:45;;;;;;;24.75;12.40;;;3.90;80.50;;;;;;5013822;28;20026;-79
2022/01/09 12:12:20;;;;;;;25.80;13.30;;;3.80;80.20;;;;;;4996102;28;20026;-79
2022/01/09 12:14:51;;;;;;;20.00;10.23;;;3.80;80.30;;;;;;4996087;28;20018;-78
2022/01/09 12:17:26;;;;;;;19.93;10.63;;;3.80;79.60;;;;;;5013898;28;20017;-79
2022/01/09 12:20:07;;;;;;;22.75;11.38;;;3.80;79.30;;;;;;4996083;28;20026;-78
2022/01/09 12:23:24;;;;;;;28.45;12.40;;;3.80;79.40;;;;;;5013851;28;20041;-78
2022/01/09 12:25:24;;;;;;;23.48;11.93;;;3.80;79.60;;;;;;5006238;28;20045;-79
2022/01/09 12:28:09;;;;;;;20.77;10.85;;;3.70;79.70;;;;;;5013528;28;20400;-81
2022/01/09 12:33:16;;;;;;;25.55;10.80;;;3.70;79.00;;;;;;5013503;28;20113;-78
2022/01/09 12:35:47;;;;;;;22.85;10.77;;;3.70;79.60;;;;;;5013492;28;20022;-82
2022/01/09 12:38:18;;;;;;;26.98;12.35;;;3.70;79.50;;;;;;5012524;28;20026;-80
2022/01/09 12:40:44;;;;;;;21.58;12.00;;;3.70;79.80;;;;;;4996020;28;20169;-82
2022/01/09 12:43:12;;;;;;;26.65;12.15;;;3.70;79.40;;;;;;4995929;28;20030;-81
2022/01/09 12:45:43;;;;;;;22.33;11.93;;;3.70;79.60;;;;;;5013837;28;20053;-81